sensor_id;sensor_type;location;lat;lon;timestamp;P1;durP1;ratioP1;P2;durP2;ratioP2
82873;SDS011;72647;51.622;7.540;2023-10-09T00:01:14;14.38;;;5.68;;
82873;SDS011;72647;51.622;7.540;2023-10-09T00:03:18;14.20;;;6.10;;
82873;SDS011;72647;51.622;7.540;2023-10-09T00:05:18;13.20;;;5.60;;
82873;SDS011;72647;51.622;7.540;2023-10-09T00:07:32;12.10;;;5.22;;
82873;SDS011;72647;51.622;7.540;2023-10-09T00:09:35;15.10;;;5.45;;
82873;SDS011;72647;51.622;7.540;2023-10-09T00:11:47;13.32;;;5.00;;
82873;SDS011;72647;51.622;7.540;2023-10-09T00:13:49;9.50;;;4.45;;
82873;SDS011;72647;51.622;7.540;2023-10-09T00:15:49;11.02;;;4.82;;
82873;SDS011;72647;51.622;7.540;2023-10-09T00:17:53;12.15;;;5.30;;
82873;SDS011;72647;51.622;7.540;2023-10-09T00:19:56;10.82;;;5.53;;
82873;SDS011;72647;51.622;7.540;2023-10-09T00:21:59;12.10;;;4.95;;
82873;SDS011;72647;51.622;7.540;2023-10-09T00:24:25;11.57;;;4.70;;
82873;SDS011;72647;51.622;7.540;2023-10-09T00:26:26;13.80;;;5.53;;
82873;SDS011;72647;51.622;7.540;2023-10-09T00:28:30;14.90;;;5.15;;
82873;SDS011;72647;51.622;7.540;2023-10-09T00:30:30;15.20;;;5.95;;
82873;SDS011;72647;51.622;7.540;2023-10-09T00:32:30;12.02;;;5.07;;
82873;SDS011;72647;51.622;7.540;2023-10-09T00:34:33;12.75;;;5.40;;
82873;SDS011;72647;51.622;7.540;2023-10-09T00:36:39;11.52;;;5.15;;
82873;SDS011;72647;51.622;7.540;2023-10-09T00:38:50;17.10;;;5.93;;
82873;SDS011;72647;51.622;7.540;2023-10-09T00:40:52;10.93;;;4.90;;
82873;SDS011;72647;51.622;7.540;2023-10-09T00:43:01;12.45;;;5.50;;
82873;SDS011;72647;51.622;7.540;2023-10-09T00:45:10;13.43;;;5.50;;
82873;SDS011;72647;51.622;7.540;2023-10-09T00:47:17;11.73;;;5.18;;
82873;SDS011;72647;51.622;7.540;2023-10-09T00:49:33;21.17;;;7.53;;
82873;SDS011;72647;51.622;7.540;2023-10-09T00:51:34;13.43;;;6.20;;
82873;SDS011;72647;51.622;7.540;2023-10-09T00:53:35;17.27;;;6.50;;
82873;SDS011;72647;51.622;7.540;2023-10-09T00:55:35;15.27;;;6.97;;
82873;SDS011;72647;51.622;7.540;2023-10-09T00:57:51;16.77;;;6.53;;
82873;SDS011;72647;51.622;7.540;2023-10-09T00:59:59;16.67;;;6.55;;
82873;SDS011;72647;51.622;7.540;2023-10-09T01:02:00;20.63;;;8.45;;
82873;SDS011;72647;51.622;7.540;2023-10-09T01:04:05;14.35;;;5.97;;
82873;SDS011;72647;51.622;7.540;2023-10-09T01:06:06;16.42;;;6.75;;
82873;SDS011;72647;51.622;7.540;2023-10-09T01:08:09;16.63;;;6.05;;
82873;SDS011;72647;51.622;7.540;2023-10-09T01:10:17;17.40;;;6.70;;
82873;SDS011;72647;51.622;7.540;2023-10-09T01:12:18;10.95;;;6.32;;
82873;SDS011;72647;51.622;7.540;2023-10-09T01:14:18;16.93;;;6.23;;
82873;SDS011;72647;51.622;7.540;2023-10-09T01:16:22;16.65;;;6.75;;
82873;SDS011;72647;51.622;7.540;2023-10-09T01:18:22;15.70;;;6.35;;
82873;SDS011;72647;51.622;7.540;2023-10-09T01:20:31;17.88;;;6.53;;
82873;SDS011;72647;51.622;7.540;2023-10-09T01:22:41;14.75;;;5.90;;
82873;SDS011;72647;51.622;7.540;2023-10-09T01:24:43;15.77;;;6.25;;
82873;SDS011;72647;51.622;7.540;2023-10-09T01:26:43;16.00;;;5.90;;
82873;SDS011;72647;51.622;7.540;2023-10-09T01:28:46;15.98;;;7.72;;
82873;SDS011;72647;51.622;7.540;2023-10-09T01:30:46;17.47;;;6.97;;
82873;SDS011;72647;51.622;7.540;2023-10-09T01:32:47;18.38;;;7.28;;
82873;SDS011;72647;51.622;7.540;2023-10-09T01:34:47;20.25;;;7.70;;
82873;SDS011;72647;51.622;7.540;2023-10-09T01:36:51;18.63;;;7.28;;
82873;SDS011;72647;51.622;7.540;2023-10-09T01:38:55;15.80;;;7.38;;
82873;SDS011;72647;51.622;7.540;2023-10-09T01:40:58;15.63;;;7.17;;
82873;SDS011;72647;51.622;7.540;2023-10-09T01:43:06;19.40;;;7.70;;
82873;SDS011;72647;51.622;7.540;2023-10-09T01:45:19;12.30;;;6.13;;
82873;SDS011;72647;51.622;7.540;2023-10-09T01:47:21;18.37;;;8.30;;
82873;SDS011;72647;51.622;7.540;2023-10-09T01:49:21;20.10;;;8.05;;
82873;SDS011;72647;51.622;7.540;2023-10-09T01:51:29;22.60;;;9.00;;
82873;SDS011;72647;51.622;7.540;2023-10-09T01:53:33;38.05;;;12.35;;
82873;SDS011;72647;51.622;7.540;2023-10-09T01:55:38;26.98;;;10.05;;
82873;SDS011;72647;51.622;7.540;2023-10-09T01:57:45;27.05;;;11.13;;
82873;SDS011;72647;51.622;7.540;2023-10-09T01:59:45;35.17;;;12.88;;
82873;SDS011;72647;51.622;7.540;2023-10-09T02:01:50;36.60;;;14.23;;
82873;SDS011;72647;51.622;7.540;2023-10-09T02:03:54;39.60;;;13.10;;
82873;SDS011;72647;51.622;7.540;2023-10-09T02:06:01;48.30;;;16.65;;
82873;SDS011;72647;51.622;7.540;2023-10-09T02:08:17;34.40;;;13.82;;
82873;SDS011;72647;51.622;7.540;2023-10-09T02:10:22;26.80;;;11.98;;
82873;SDS011;72647;51.622;7.540;2023-10-09T02:12:31;23.45;;;10.55;;
82873;SDS011;72647;51.622;7.540;2023-10-09T02:14:33;26.10;;;11.63;;
82873;SDS011;72647;51.622;7.540;2023-10-09T02:16:37;22.38;;;10.10;;
82873;SDS011;72647;51.622;7.540;2023-10-09T02:18:42;24.90;;;9.90;;
82873;SDS011;72647;51.622;7.540;2023-10-09T02:22:59;27.52;;;11.55;;
82873;SDS011;72647;51.622;7.540;2023-10-09T02:27:00;17.70;;;8.97;;
82873;SDS011;72647;51.622;7.540;2023-10-09T02:29:06;23.98;;;10.07;;
82873;SDS011;72647;51.622;7.540;2023-10-09T02:31:15;24.10;;;11.50;;
82873;SDS011;72647;51.622;7.540;2023-10-09T02:33:16;26.05;;;10.13;;
82873;SDS011;72647;51.622;7.540;2023-10-09T02:35:27;23.05;;;10.43;;
82873;SDS011;72647;51.622;7.540;2023-10-09T02:37:50;15.95;;;9.20;;
82873;SDS011;72647;51.622;7.540;2023-10-09T02:39:53;18.80;;;10.02;;
82873;SDS011;72647;51.622;7.540;2023-10-09T02:44:19;18.23;;;8.32;;
82873;SDS011;72647;51.622;7.540;2023-10-09T02:46:24;16.88;;;8.73;;
82873;SDS011;72647;51.622;7.540;2023-10-09T02:48:31;20.33;;;9.80;;
82873;SDS011;72647;51.622;7.540;2023-10-09T02:50:36;18.58;;;10.00;;
82873;SDS011;72647;51.622;7.540;2023-10-09T02:52:38;19.85;;;9.15;;
82873;SDS011;72647;51.622;7.540;2023-10-09T02:54:41;24.08;;;9.27;;
82873;SDS011;72647;51.622;7.540;2023-10-09T02:56:42;19.60;;;9.98;;
82873;SDS011;72647;51.622;7.540;2023-10-09T03:00:44;20.43;;;9.60;;
82873;SDS011;72647;51.622;7.540;2023-10-09T03:02:44;19.25;;;8.82;;
82873;SDS011;72647;51.622;7.540;2023-10-09T03:04:48;18.10;;;9.80;;
82873;SDS011;72647;51.622;7.540;2023-10-09T03:08:57;16.77;;;8.35;;
82873;SDS011;72647;51.622;7.540;2023-10-09T03:13:00;17.20;;;8.63;;
82873;SDS011;72647;51.622;7.540;2023-10-09T03:15:03;16.42;;;8.45;;
82873;SDS011;72647;51.622;7.540;2023-10-09T03:17:06;15.80;;;7.40;;
82873;SDS011;72647;51.622;7.540;2023-10-09T03:19:11;17.10;;;8.63;;
82873;SDS011;72647;51.622;7.540;2023-10-09T03:23:11;17.13;;;8.77;;
82873;SDS011;72647;51.622;7.540;2023-10-09T03:25:14;15.35;;;8.57;;
82873;SDS011;72647;51.622;7.540;2023-10-09T03:27:17;18.92;;;8.55;;
82873;SDS011;72647;51.622;7.540;2023-10-09T03:31:20;18.05;;;8.27;;
82873;SDS011;72647;51.622;7.540;2023-10-09T03:33:22;17.45;;;8.63;;
82873;SDS011;72647;51.622;7.540;2023-10-09T03:37:26;19.90;;;7.93;;
82873;SDS011;72647;51.622;7.540;2023-10-09T03:39:36;15.55;;;8.43;;
82873;SDS011;72647;51.622;7.540;2023-10-09T03:43:42;17.42;;;8.50;;
82873;SDS011;72647;51.622;7.540;2023-10-09T03:47:56;14.68;;;7.85;;
82873;SDS011;72647;51.622;7.540;2023-10-09T03:50:09;15.68;;;8.13;;
82873;SDS011;72647;51.622;7.540;2023-10-09T03:52:23;15.80;;;8.32;;
82873;SDS011;72647;51.622;7.540;2023-10-09T03:54:27;17.08;;;7.78;;
82873;SDS011;72647;51.622;7.540;2023-10-09T03:56:29;16.48;;;8.40;;
82873;SDS011;72647;51.622;7.540;2023-10-09T03:58:31;17.35;;;8.73;;
82873;SDS011;72647;51.622;7.540;2023-10-09T04:00:33;16.48;;;8.30;;
82873;SDS011;72647;51.622;7.540;2023-10-09T04:02:44;14.32;;;8.85;;
82873;SDS011;72647;51.622;7.540;2023-10-09T04:06:51;12.80;;;7.30;;
82873;SDS011;72647;51.622;7.540;2023-10-09T04:10:52;13.95;;;8.00;;
82873;SDS011;72647;51.622;7.540;2023-10-09T04:14:53;15.43;;;6.95;;
82873;SDS011;72647;51.622;7.540;2023-10-09T04:17:03;21.17;;;7.97;;
82873;SDS011;72647;51.622;7.540;2023-10-09T04:19:23;15.73;;;7.07;;
82873;SDS011;72647;51.622;7.540;2023-10-09T04:23:36;12.85;;;6.88;;
82873;SDS011;72647;51.622;7.540;2023-10-09T04:25:56;12.95;;;7.63;;
82873;SDS011;72647;51.622;7.540;2023-10-09T04:28:01;16.13;;;7.82;;
82873;SDS011;72647;51.622;7.540;2023-10-09T04:30:10;12.48;;;7.03;;
82873;SDS011;72647;51.622;7.540;2023-10-09T04:32:15;17.95;;;7.22;;
82873;SDS011;72647;51.622;7.540;2023-10-09T04:34:19;15.18;;;7.05;;
82873;SDS011;72647;51.622;7.540;2023-10-09T04:36:22;16.58;;;7.53;;
82873;SDS011;72647;51.622;7.540;2023-10-09T04:40:22;13.23;;;7.57;;
82873;SDS011;72647;51.622;7.540;2023-10-09T04:42:48;12.73;;;7.00;;
82873;SDS011;72647;51.622;7.540;2023-10-09T04:44:59;16.95;;;7.40;;
82873;SDS011;72647;51.622;7.540;2023-10-09T04:47:02;17.38;;;7.60;;
82873;SDS011;72647;51.622;7.540;2023-10-09T04:49:14;15.23;;;7.13;;
82873;SDS011;72647;51.622;7.540;2023-10-09T04:51:37;14.48;;;7.35;;
82873;SDS011;72647;51.622;7.540;2023-10-09T04:53:55;14.10;;;7.07;;
82873;SDS011;72647;51.622;7.540;2023-10-09T04:56:15;18.40;;;6.97;;
82873;SDS011;72647;51.622;7.540;2023-10-09T04:58:16;16.58;;;6.93;;
82873;SDS011;72647;51.622;7.540;2023-10-09T05:00:23;14.02;;;7.57;;
82873;SDS011;72647;51.622;7.540;2023-10-09T05:02:26;11.93;;;6.40;;
82873;SDS011;72647;51.622;7.540;2023-10-09T05:04:36;17.02;;;6.88;;
82873;SDS011;72647;51.622;7.540;2023-10-09T05:06:39;13.05;;;6.63;;
82873;SDS011;72647;51.622;7.540;2023-10-09T05:08:54;12.95;;;6.20;;
82873;SDS011;72647;51.622;7.540;2023-10-09T05:13:01;14.77;;;6.90;;
82873;SDS011;72647;51.622;7.540;2023-10-09T05:15:02;12.15;;;6.53;;
82873;SDS011;72647;51.622;7.540;2023-10-09T05:17:09;13.07;;;6.82;;
82873;SDS011;72647;51.622;7.540;2023-10-09T05:19:15;14.20;;;7.57;;
82873;SDS011;72647;51.622;7.540;2023-10-09T05:21:41;14.50;;;6.93;;
82873;SDS011;72647;51.622;7.540;2023-10-09T05:25:48;12.15;;;6.07;;
82873;SDS011;72647;51.622;7.540;2023-10-09T05:27:55;12.77;;;7.72;;
82873;SDS011;72647;51.622;7.540;2023-10-09T05:30:16;13.27;;;7.10;;
82873;SDS011;72647;51.622;7.540;2023-10-09T05:32:25;11.80;;;6.35;;
82873;SDS011;72647;51.622;7.540;2023-10-09T05:34:35;14.63;;;6.40;;
82873;SDS011;72647;51.622;7.540;2023-10-09T05:36:58;11.13;;;6.63;;
82873;SDS011;72647;51.622;7.540;2023-10-09T05:39:11;14.80;;;6.68;;
82873;SDS011;72647;51.622;7.540;2023-10-09T05:41:40;14.50;;;7.07;;
82873;SDS011;72647;51.622;7.540;2023-10-09T05:43:47;12.30;;;6.38;;
82873;SDS011;72647;51.622;7.540;2023-10-09T05:46:06;12.73;;;6.63;;
82873;SDS011;72647;51.622;7.540;2023-10-09T05:48:09;17.15;;;6.80;;
82873;SDS011;72647;51.622;7.540;2023-10-09T05:50:13;15.25;;;6.85;;
82873;SDS011;72647;51.622;7.540;2023-10-09T05:54:52;12.10;;;6.43;;
82873;SDS011;72647;51.622;7.540;2023-10-09T05:57:15;12.13;;;6.75;;
82873;SDS011;72647;51.622;7.540;2023-10-09T05:59:33;16.48;;;7.53;;
82873;SDS011;72647;51.622;7.540;2023-10-09T06:01:54;14.57;;;6.70;;
82873;SDS011;72647;51.622;7.540;2023-10-09T06:04:03;14.15;;;6.85;;
82873;SDS011;72647;51.622;7.540;2023-10-09T06:06:15;16.80;;;6.68;;
82873;SDS011;72647;51.622;7.540;2023-10-09T06:08:32;13.63;;;6.93;;
82873;SDS011;72647;51.622;7.540;2023-10-09T06:10:58;13.77;;;6.97;;
82873;SDS011;72647;51.622;7.540;2023-10-09T06:13:18;14.70;;;7.05;;
82873;SDS011;72647;51.622;7.540;2023-10-09T06:15:37;12.38;;;6.53;;
82873;SDS011;72647;51.622;7.540;2023-10-09T06:17:50;13.20;;;6.50;;
82873;SDS011;72647;51.622;7.540;2023-10-09T06:21:58;13.20;;;6.90;;
82873;SDS011;72647;51.622;7.540;2023-10-09T06:24:22;15.88;;;7.13;;
82873;SDS011;72647;51.622;7.540;2023-10-09T06:26:23;15.50;;;6.95;;
82873;SDS011;72647;51.622;7.540;2023-10-09T06:28:26;15.02;;;7.68;;
82873;SDS011;72647;51.622;7.540;2023-10-09T06:30:34;15.80;;;7.60;;
82873;SDS011;72647;51.622;7.540;2023-10-09T06:32:35;14.77;;;7.03;;
82873;SDS011;72647;51.622;7.540;2023-10-09T06:34:37;11.63;;;6.45;;
82873;SDS011;72647;51.622;7.540;2023-10-09T06:36:44;11.45;;;6.32;;
82873;SDS011;72647;51.622;7.540;2023-10-09T06:38:53;16.23;;;7.50;;
82873;SDS011;72647;51.622;7.540;2023-10-09T06:41:13;15.63;;;7.50;;
82873;SDS011;72647;51.622;7.540;2023-10-09T06:43:33;13.77;;;6.72;;
82873;SDS011;72647;51.622;7.540;2023-10-09T06:45:36;18.30;;;7.85;;
82873;SDS011;72647;51.622;7.540;2023-10-09T06:47:54;13.80;;;6.95;;
82873;SDS011;72647;51.622;7.540;2023-10-09T06:50:10;12.00;;;6.40;;
82873;SDS011;72647;51.622;7.540;2023-10-09T06:52:19;13.55;;;7.05;;
82873;SDS011;72647;51.622;7.540;2023-10-09T06:54:40;15.38;;;7.43;;
82873;SDS011;72647;51.622;7.540;2023-10-09T06:56:49;16.42;;;7.15;;
82873;SDS011;72647;51.622;7.540;2023-10-09T06:58:52;14.15;;;7.15;;
82873;SDS011;72647;51.622;7.540;2023-10-09T07:00:55;12.55;;;6.78;;
82873;SDS011;72647;51.622;7.540;2023-10-09T07:02:58;16.15;;;7.38;;
82873;SDS011;72647;51.622;7.540;2023-10-09T07:05:05;13.25;;;7.18;;
82873;SDS011;72647;51.622;7.540;2023-10-09T07:07:11;14.73;;;7.10;;
82873;SDS011;72647;51.622;7.540;2023-10-09T07:09:16;13.45;;;6.57;;
82873;SDS011;72647;51.622;7.540;2023-10-09T07:11:19;15.70;;;7.82;;
82873;SDS011;72647;51.622;7.540;2023-10-09T07:13:42;13.48;;;7.25;;
82873;SDS011;72647;51.622;7.540;2023-10-09T07:15:47;15.55;;;7.25;;
82873;SDS011;72647;51.622;7.540;2023-10-09T07:18:05;15.15;;;7.80;;
82873;SDS011;72647;51.622;7.540;2023-10-09T07:20:18;15.93;;;7.05;;
82873;SDS011;72647;51.622;7.540;2023-10-09T07:22:37;15.77;;;7.65;;
82873;SDS011;72647;51.622;7.540;2023-10-09T07:24:53;13.50;;;6.57;;
82873;SDS011;72647;51.622;7.540;2023-10-09T07:26:57;15.88;;;6.90;;
82873;SDS011;72647;51.622;7.540;2023-10-09T07:29:06;15.18;;;6.97;;
82873;SDS011;72647;51.622;7.540;2023-10-09T07:31:21;13.35;;;6.80;;
82873;SDS011;72647;51.622;7.540;2023-10-09T07:33:26;16.38;;;7.75;;
82873;SDS011;72647;51.622;7.540;2023-10-09T07:35:48;12.52;;;6.90;;
82873;SDS011;72647;51.622;7.540;2023-10-09T07:37:54;16.05;;;7.53;;
82873;SDS011;72647;51.622;7.540;2023-10-09T07:41:57;14.57;;;7.13;;
82873;SDS011;72647;51.622;7.540;2023-10-09T07:44:15;14.38;;;6.97;;
82873;SDS011;72647;51.622;7.540;2023-10-09T07:46:36;14.02;;;6.97;;
82873;SDS011;72647;51.622;7.540;2023-10-09T07:49:14;16.38;;;7.80;;
82873;SDS011;72647;51.622;7.540;2023-10-09T07:51:24;14.77;;;6.68;;
82873;SDS011;72647;51.622;7.540;2023-10-09T07:53:30;16.17;;;6.97;;
82873;SDS011;72647;51.622;7.540;2023-10-09T07:55:43;19.17;;;8.05;;
82873;SDS011;72647;51.622;7.540;2023-10-09T07:57:54;17.42;;;7.60;;
82873;SDS011;72647;51.622;7.540;2023-10-09T08:02:23;14.80;;;6.95;;
82873;SDS011;72647;51.622;7.540;2023-10-09T08:04:32;14.20;;;7.25;;
82873;SDS011;72647;51.622;7.540;2023-10-09T08:06:53;16.17;;;7.38;;
82873;SDS011;72647;51.622;7.540;2023-10-09T08:11:02;14.38;;;7.55;;
82873;SDS011;72647;51.622;7.540;2023-10-09T08:13:22;13.95;;;7.25;;
82873;SDS011;72647;51.622;7.540;2023-10-09T08:15:55;18.52;;;8.38;;
82873;SDS011;72647;51.622;7.540;2023-10-09T08:17:56;15.40;;;7.05;;
82873;SDS011;72647;51.622;7.540;2023-10-09T08:19:59;13.68;;;7.93;;
82873;SDS011;72647;51.622;7.540;2023-10-09T08:22:11;12.35;;;7.68;;
82873;SDS011;72647;51.622;7.540;2023-10-09T08:24:38;13.68;;;7.72;;
82873;SDS011;72647;51.622;7.540;2023-10-09T08:26:41;13.75;;;7.32;;
82873;SDS011;72647;51.622;7.540;2023-10-09T08:29:01;14.30;;;8.02;;
82873;SDS011;72647;51.622;7.540;2023-10-09T08:31:28;13.02;;;7.25;;
82873;SDS011;72647;51.622;7.540;2023-10-09T08:33:48;12.48;;;7.55;;
82873;SDS011;72647;51.622;7.540;2023-10-09T08:35:58;13.27;;;7.53;;
82873;SDS011;72647;51.622;7.540;2023-10-09T08:38:21;19.40;;;7.65;;
82873;SDS011;72647;51.622;7.540;2023-10-09T08:40:28;14.20;;;7.80;;
82873;SDS011;72647;51.622;7.540;2023-10-09T08:42:31;14.30;;;7.88;;
82873;SDS011;72647;51.622;7.540;2023-10-09T08:46:33;16.13;;;7.85;;
82873;SDS011;72647;51.622;7.540;2023-10-09T08:50:37;13.18;;;7.10;;
82873;SDS011;72647;51.622;7.540;2023-10-09T08:54:37;16.50;;;8.32;;
82873;SDS011;72647;51.622;7.540;2023-10-09T08:58:39;14.23;;;7.65;;
82873;SDS011;72647;51.622;7.540;2023-10-09T09:02:46;13.75;;;7.53;;
82873;SDS011;72647;51.622;7.540;2023-10-09T09:04:47;14.18;;;8.27;;
82873;SDS011;72647;51.622;7.540;2023-10-09T09:06:50;17.45;;;9.65;;
82873;SDS011;72647;51.622;7.540;2023-10-09T09:10:58;19.80;;;8.60;;
82873;SDS011;72647;51.622;7.540;2023-10-09T09:13:05;19.08;;;10.73;;
82873;SDS011;72647;51.622;7.540;2023-10-09T09:17:10;16.50;;;8.48;;
82873;SDS011;72647;51.622;7.540;2023-10-09T09:19:31;16.52;;;9.23;;
82873;SDS011;72647;51.622;7.540;2023-10-09T09:21:32;18.48;;;9.13;;
82873;SDS011;72647;51.622;7.540;2023-10-09T09:23:41;18.77;;;9.00;;
82873;SDS011;72647;51.622;7.540;2023-10-09T09:25:54;16.35;;;8.30;;
82873;SDS011;72647;51.622;7.540;2023-10-09T09:28:03;18.55;;;8.05;;
82873;SDS011;72647;51.622;7.540;2023-10-09T09:30:21;16.60;;;7.53;;
82873;SDS011;72647;51.622;7.540;2023-10-09T09:34:54;14.38;;;8.20;;
82873;SDS011;72647;51.622;7.540;2023-10-09T09:36:58;16.42;;;7.63;;
82873;SDS011;72647;51.622;7.540;2023-10-09T09:38:58;16.30;;;8.30;;
82873;SDS011;72647;51.622;7.540;2023-10-09T09:41:01;13.15;;;7.70;;
82873;SDS011;72647;51.622;7.540;2023-10-09T09:43:07;17.17;;;8.23;;
82873;SDS011;72647;51.622;7.540;2023-10-09T09:45:22;16.48;;;8.55;;
82873;SDS011;72647;51.622;7.540;2023-10-09T09:47:23;16.33;;;7.75;;
82873;SDS011;72647;51.622;7.540;2023-10-09T09:49:26;14.02;;;7.57;;
82873;SDS011;72647;51.622;7.540;2023-10-09T09:51:31;14.00;;;7.85;;
82873;SDS011;72647;51.622;7.540;2023-10-09T09:53:32;17.77;;;7.85;;
82873;SDS011;72647;51.622;7.540;2023-10-09T09:55:34;12.80;;;7.25;;
82873;SDS011;72647;51.622;7.540;2023-10-09T09:57:41;12.27;;;7.20;;
82873;SDS011;72647;51.622;7.540;2023-10-09T09:59:45;12.15;;;6.75;;
82873;SDS011;72647;51.622;7.540;2023-10-09T10:01:52;11.75;;;6.30;;
82873;SDS011;72647;51.622;7.540;2023-10-09T10:04:08;13.48;;;6.90;;
82873;SDS011;72647;51.622;7.540;2023-10-09T10:06:14;14.15;;;6.80;;
82873;SDS011;72647;51.622;7.540;2023-10-09T10:08:15;11.52;;;6.57;;
82873;SDS011;72647;51.622;7.540;2023-10-09T10:10:35;12.85;;;8.02;;
82873;SDS011;72647;51.622;7.540;2023-10-09T10:12:50;15.82;;;7.43;;
82873;SDS011;72647;51.622;7.540;2023-10-09T10:15:00;13.13;;;7.57;;
82873;SDS011;72647;51.622;7.540;2023-10-09T10:17:08;12.75;;;6.78;;
82873;SDS011;72647;51.622;7.540;2023-10-09T10:19:17;14.38;;;7.78;;
82873;SDS011;72647;51.622;7.540;2023-10-09T10:21:17;13.43;;;8.00;;
82873;SDS011;72647;51.622;7.540;2023-10-09T10:23:49;19.77;;;9.25;;
82873;SDS011;72647;51.622;7.540;2023-10-09T10:25:49;12.20;;;8.33;;
82873;SDS011;72647;51.622;7.540;2023-10-09T10:27:59;13.88;;;7.78;;
82873;SDS011;72647;51.622;7.540;2023-10-09T10:32:12;16.23;;;8.23;;
82873;SDS011;72647;51.622;7.540;2023-10-09T10:34:20;14.00;;;7.70;;
82873;SDS011;72647;51.622;7.540;2023-10-09T10:36:24;13.23;;;7.65;;
82873;SDS011;72647;51.622;7.540;2023-10-09T10:38:31;14.55;;;7.47;;
82873;SDS011;72647;51.622;7.540;2023-10-09T10:40:37;16.35;;;8.48;;
82873;SDS011;72647;51.622;7.540;2023-10-09T10:42:47;18.23;;;8.18;;
82873;SDS011;72647;51.622;7.540;2023-10-09T10:44:57;14.65;;;7.60;;
82873;SDS011;72647;51.622;7.540;2023-10-09T10:46:57;15.97;;;7.83;;
82873;SDS011;72647;51.622;7.540;2023-10-09T10:49:01;10.87;;;6.90;;
82873;SDS011;72647;51.622;7.540;2023-10-09T10:51:13;14.77;;;7.65;;
82873;SDS011;72647;51.622;7.540;2023-10-09T10:53:21;14.43;;;7.32;;
82873;SDS011;72647;51.622;7.540;2023-10-09T10:55:22;16.98;;;8.57;;
82873;SDS011;72647;51.622;7.540;2023-10-09T10:57:35;17.45;;;7.70;;
82873;SDS011;72647;51.622;7.540;2023-10-09T10:59:56;17.48;;;7.90;;
82873;SDS011;72647;51.622;7.540;2023-10-09T11:02:14;16.45;;;7.97;;
82873;SDS011;72647;51.622;7.540;2023-10-09T11:04:23;14.68;;;7.68;;
82873;SDS011;72647;51.622;7.540;2023-10-09T11:06:30;14.80;;;7.68;;
82873;SDS011;72647;51.622;7.540;2023-10-09T11:08:40;15.32;;;7.75;;
82873;SDS011;72647;51.622;7.540;2023-10-09T11:10:50;18.88;;;8.88;;
82873;SDS011;72647;51.622;7.540;2023-10-09T11:12:51;17.90;;;8.88;;
82873;SDS011;72647;51.622;7.540;2023-10-09T11:14:51;17.33;;;10.30;;
82873;SDS011;72647;51.622;7.540;2023-10-09T11:17:07;15.98;;;9.32;;
82873;SDS011;72647;51.622;7.540;2023-10-09T11:19:23;16.95;;;9.30;;
82873;SDS011;72647;51.622;7.540;2023-10-09T11:21:27;15.68;;;9.50;;
82873;SDS011;72647;51.622;7.540;2023-10-09T11:25:53;18.98;;;9.80;;
82873;SDS011;72647;51.622;7.540;2023-10-09T11:27:59;17.92;;;9.32;;
82873;SDS011;72647;51.622;7.540;2023-10-09T11:30:15;15.85;;;9.00;;
82873;SDS011;72647;51.622;7.540;2023-10-09T11:32:26;18.92;;;10.13;;
82873;SDS011;72647;51.622;7.540;2023-10-09T11:34:32;17.02;;;9.10;;
82873;SDS011;72647;51.622;7.540;2023-10-09T11:36:38;18.30;;;9.23;;
82873;SDS011;72647;51.622;7.540;2023-10-09T11:38:38;16.02;;;9.63;;
82873;SDS011;72647;51.622;7.540;2023-10-09T11:40:40;17.42;;;9.70;;
82873;SDS011;72647;51.622;7.540;2023-10-09T11:42:52;16.10;;;9.10;;
82873;SDS011;72647;51.622;7.540;2023-10-09T11:44:57;14.85;;;8.07;;
82873;SDS011;72647;51.622;7.540;2023-10-09T11:47:04;15.07;;;8.32;;
82873;SDS011;72647;51.622;7.540;2023-10-09T11:49:19;18.63;;;8.57;;
82873;SDS011;72647;51.622;7.540;2023-10-09T11:51:20;14.57;;;7.97;;
82873;SDS011;72647;51.622;7.540;2023-10-09T11:53:21;14.10;;;8.77;;
82873;SDS011;72647;51.622;7.540;2023-10-09T11:55:33;14.52;;;7.60;;
82873;SDS011;72647;51.622;7.540;2023-10-09T11:57:33;15.30;;;8.13;;
82873;SDS011;72647;51.622;7.540;2023-10-09T11:59:35;12.98;;;7.68;;
82873;SDS011;72647;51.622;7.540;2023-10-09T12:01:38;18.02;;;7.85;;
82873;SDS011;72647;51.622;7.540;2023-10-09T12:03:42;15.38;;;8.90;;
82873;SDS011;72647;51.622;7.540;2023-10-09T12:05:44;14.45;;;8.70;;
82873;SDS011;72647;51.622;7.540;2023-10-09T12:07:45;13.17;;;8.23;;
82873;SDS011;72647;51.622;7.540;2023-10-09T12:09:45;13.65;;;8.80;;
82873;SDS011;72647;51.622;7.540;2023-10-09T12:11:45;15.32;;;8.50;;
82873;SDS011;72647;51.622;7.540;2023-10-09T12:13:52;15.73;;;8.82;;
82873;SDS011;72647;51.622;7.540;2023-10-09T12:15:56;13.65;;;7.78;;
82873;SDS011;72647;51.622;7.540;2023-10-09T12:17:57;14.50;;;7.50;;
82873;SDS011;72647;51.622;7.540;2023-10-09T12:19:58;13.00;;;7.67;;
82873;SDS011;72647;51.622;7.540;2023-10-09T12:21:59;16.30;;;8.20;;
82873;SDS011;72647;51.622;7.540;2023-10-09T12:24:00;14.50;;;8.23;;
82873;SDS011;72647;51.622;7.540;2023-10-09T12:26:00;12.23;;;7.23;;
82873;SDS011;72647;51.622;7.540;2023-10-09T12:28:01;16.85;;;9.10;;
82873;SDS011;72647;51.622;7.540;2023-10-09T12:30:02;14.73;;;8.48;;
82873;SDS011;72647;51.622;7.540;2023-10-09T12:32:03;14.63;;;8.90;;
82873;SDS011;72647;51.622;7.540;2023-10-09T12:34:06;14.45;;;8.50;;
82873;SDS011;72647;51.622;7.540;2023-10-09T12:36:11;16.27;;;8.40;;
82873;SDS011;72647;51.622;7.540;2023-10-09T12:38:17;17.65;;;8.15;;
82873;SDS011;72647;51.622;7.540;2023-10-09T12:40:22;18.85;;;8.63;;
82873;SDS011;72647;51.622;7.540;2023-10-09T12:42:29;15.20;;;9.13;;
82873;SDS011;72647;51.622;7.540;2023-10-09T12:44:29;15.70;;;8.17;;
82873;SDS011;72647;51.622;7.540;2023-10-09T12:46:29;20.30;;;9.33;;
82873;SDS011;72647;51.622;7.540;2023-10-09T12:48:37;16.77;;;8.57;;
82873;SDS011;72647;51.622;7.540;2023-10-09T12:50:38;16.40;;;7.97;;
82873;SDS011;72647;51.622;7.540;2023-10-09T12:52:47;15.65;;;8.68;;
82873;SDS011;72647;51.622;7.540;2023-10-09T12:54:50;14.77;;;8.20;;
82873;SDS011;72647;51.622;7.540;2023-10-09T12:56:50;14.60;;;7.83;;
82873;SDS011;72647;51.622;7.540;2023-10-09T12:58:50;16.33;;;8.73;;
82873;SDS011;72647;51.622;7.540;2023-10-09T13:00:57;13.63;;;7.97;;
82873;SDS011;72647;51.622;7.540;2023-10-09T13:03:09;14.10;;;8.32;;
82873;SDS011;72647;51.622;7.540;2023-10-09T13:05:21;16.90;;;8.32;;
82873;SDS011;72647;51.622;7.540;2023-10-09T13:07:27;17.85;;;9.35;;
82873;SDS011;72647;51.622;7.540;2023-10-09T13:09:27;14.50;;;9.50;;
82873;SDS011;72647;51.622;7.540;2023-10-09T13:11:42;15.32;;;9.07;;
82873;SDS011;72647;51.622;7.540;2023-10-09T13:13:43;17.73;;;9.10;;
82873;SDS011;72647;51.622;7.540;2023-10-09T13:15:46;16.17;;;8.85;;
82873;SDS011;72647;51.622;7.540;2023-10-09T13:17:46;13.50;;;8.47;;
82873;SDS011;72647;51.622;7.540;2023-10-09T13:19:47;14.65;;;8.57;;
82873;SDS011;72647;51.622;7.540;2023-10-09T13:21:47;19.90;;;8.80;;
82873;SDS011;72647;51.622;7.540;2023-10-09T13:23:49;17.67;;;9.73;;
82873;SDS011;72647;51.622;7.540;2023-10-09T13:25:54;17.08;;;9.27;;
82873;SDS011;72647;51.622;7.540;2023-10-09T13:27:56;15.30;;;8.07;;
82873;SDS011;72647;51.622;7.540;2023-10-09T13:29:56;15.80;;;7.97;;
82873;SDS011;72647;51.622;7.540;2023-10-09T13:32:06;17.48;;;8.43;;
82873;SDS011;72647;51.622;7.540;2023-10-09T13:34:13;18.98;;;9.00;;
82873;SDS011;72647;51.622;7.540;2023-10-09T13:36:16;18.77;;;8.88;;
82873;SDS011;72647;51.622;7.540;2023-10-09T13:38:19;13.18;;;7.45;;
82873;SDS011;72647;51.622;7.540;2023-10-09T13:40:22;13.30;;;7.33;;
82873;SDS011;72647;51.622;7.540;2023-10-09T13:42:26;13.48;;;6.95;;
82873;SDS011;72647;51.622;7.540;2023-10-09T13:44:30;14.70;;;7.90;;